FDX1508 KMEM-KLAX
Flight info
| Callsign | FDX1508 |
|---|---|
| Flight time | 3h 38m |
| Altitude | 30000 |
| Route | DUCKZ5 HELAR KLUBB TCC DRK GABBL HLYWD1 |
| Aircraft | B763/H-SDE3FGHIM3RWXY/LB1 |
Departure
| Time | 2026-05-06 01:35 |
|---|---|
| Airport | Memphis International Airport (KMEM) |
Arrival
| Time | 2026-05-06 05:14 |
|---|---|
| Airport | Los Angeles International Airport (KLAX) |
| Time | Latitude | Longitude | Altitude | Speed | Heading |
|---|---|---|---|---|---|
| 2026-05-06 00:56 | 35.05995 | -89.96373 | 275 ft | 0 kts | 182° |
| 2026-05-06 01:20 | 35.06002 | -89.96373 | 274 ft | 2 kts | 181° |
| 2026-05-06 01:20 | 35.06017 | -89.96371 | 274 ft | 2 kts | 196° |
| 2026-05-06 01:21 | 35.06031 | -89.96365 | 274 ft | 2 kts | 207° |
| 2026-05-06 01:21 | 35.06044 | -89.96355 | 274 ft | 2 kts | 219° |
| 2026-05-06 01:21 | 35.06055 | -89.96343 | 274 ft | 2 kts | 231° |
| 2026-05-06 01:21 | 35.06063 | -89.96328 | 275 ft | 2 kts | 243° |
| 2026-05-06 01:22 | 35.06069 | -89.96311 | 275 ft | 2 kts | 255° |
| 2026-05-06 01:22 | 35.06072 | -89.96294 | 275 ft | 2 kts | 267° |
| 2026-05-06 01:22 | 35.06072 | -89.96285 | 276 ft | 1 kts | 272° |
| 2026-05-06 01:22 | 35.06072 | -89.96283 | 276 ft | 0 kts | 271° |
| 2026-05-06 01:24 | 35.06072 | -89.96287 | 275 ft | 2 kts | 271° |
| 2026-05-06 01:24 | 35.06064 | -89.96336 | 275 ft | 7 kts | 251° |
| 2026-05-06 01:25 | 35.06050 | -89.96395 | 273 ft | 7 kts | 261° |
| 2026-05-06 01:25 | 35.06044 | -89.96453 | 273 ft | 6 kts | 256° |
| 2026-05-06 01:25 | 35.06020 | -89.96494 | 272 ft | 5 kts | 221° |
| 2026-05-06 01:25 | 35.05983 | -89.96524 | 272 ft | 6 kts | 212° |
| 2026-05-06 01:26 | 35.05946 | -89.96553 | 272 ft | 6 kts | 216° |
| 2026-05-06 01:26 | 35.05918 | -89.96609 | 272 ft | 9 kts | 260° |
| 2026-05-06 01:26 | 35.05918 | -89.96687 | 271 ft | 8 kts | 271° |
| 2026-05-06 01:26 | 35.05920 | -89.96766 | 270 ft | 10 kts | 272° |
| 2026-05-06 01:27 | 35.05923 | -89.96865 | 270 ft | 13 kts | 272° |
| 2026-05-06 01:27 | 35.05927 | -89.96987 | 269 ft | 14 kts | 272° |
| 2026-05-06 01:27 | 35.05929 | -89.97106 | 269 ft | 13 kts | 272° |
| 2026-05-06 01:27 | 35.05933 | -89.97214 | 269 ft | 13 kts | 272° |
| 2026-05-06 01:28 | 35.05936 | -89.97326 | 268 ft | 12 kts | 272° |
| 2026-05-06 01:28 | 35.05938 | -89.97427 | 267 ft | 12 kts | 272° |
| 2026-05-06 01:28 | 35.05952 | -89.97541 | 267 ft | 15 kts | 284° |
| 2026-05-06 01:28 | 35.05982 | -89.97680 | 265 ft | 17 kts | 285° |
| 2026-05-06 01:29 | 35.06005 | -89.97824 | 264 ft | 16 kts | 274° |
| 2026-05-06 01:29 | 35.06009 | -89.97954 | 263 ft | 14 kts | 271° |
| 2026-05-06 01:29 | 35.06013 | -89.98073 | 262 ft | 13 kts | 272° |
| 2026-05-06 01:29 | 35.06016 | -89.98187 | 262 ft | 13 kts | 272° |
| 2026-05-06 01:30 | 35.06020 | -89.98302 | 261 ft | 13 kts | 271° |
| 2026-05-06 01:30 | 35.06022 | -89.98419 | 260 ft | 13 kts | 272° |
| 2026-05-06 01:30 | 35.06002 | -89.98501 | 260 ft | 9 kts | 219° |
| 2026-05-06 01:30 | 35.05940 | -89.98511 | 261 ft | 10 kts | 176° |
| 2026-05-06 01:31 | 35.05843 | -89.98505 | 262 ft | 16 kts | 179° |
| 2026-05-06 01:31 | 35.05717 | -89.98506 | 265 ft | 17 kts | 181° |
| 2026-05-06 01:31 | 35.05607 | -89.98508 | 267 ft | 13 kts | 180° |
| 2026-05-06 01:31 | 35.05521 | -89.98509 | 269 ft | 11 kts | 180° |
| 2026-05-06 01:32 | 35.05437 | -89.98510 | 272 ft | 13 kts | 181° |
| 2026-05-06 01:32 | 35.05341 | -89.98511 | 275 ft | 12 kts | 181° |
| 2026-05-06 01:32 | 35.05265 | -89.98512 | 276 ft | 10 kts | 178° |
| 2026-05-06 01:32 | 35.05185 | -89.98511 | 279 ft | 12 kts | 180° |
| 2026-05-06 01:33 | 35.05108 | -89.98526 | 281 ft | 10 kts | 198° |
| 2026-05-06 01:33 | 35.05045 | -89.98560 | 282 ft | 9 kts | 205° |
| 2026-05-06 01:33 | 35.04993 | -89.98591 | 283 ft | 7 kts | 206° |
| 2026-05-06 01:33 | 35.04951 | -89.98622 | 284 ft | 7 kts | 226° |
| 2026-05-06 01:34 | 35.04937 | -89.98695 | 283 ft | 10 kts | 271° |
| 2026-05-06 01:34 | 35.04926 | -89.98740 | 283 ft | 5 kts | 215° |
| 2026-05-06 01:34 | 35.04860 | -89.98743 | 284 ft | 16 kts | 178° |
| 2026-05-06 01:34 | 35.04588 | -89.98737 | 288 ft | 63 kts | 179° |
| 2026-05-06 01:35 | 35.03982 | -89.98724 | 295 ft | 109 kts | 179° |
| 2026-05-06 01:35 | 35.03079 | -89.98703 | 315 ft | 148 kts | 179° |
| 2026-05-06 01:35 | 35.01960 | -89.98668 | 497 ft | 169 kts | 179° |
| 2026-05-06 01:35 | 35.00795 | -89.98696 | 1026 ft | 168 kts | 189° |
| 2026-05-06 01:36 | 34.99668 | -89.99000 | 1632 ft | 158 kts | 196° |
| 2026-05-06 01:36 | 34.98589 | -89.99377 | 1872 ft | 170 kts | 198° |
| 2026-05-06 01:36 | 34.97392 | -89.99871 | 2089 ft | 192 kts | 200° |
| 2026-05-06 01:36 | 34.96143 | -90.00427 | 2814 ft | 187 kts | 203° |
| 2026-05-06 01:37 | 34.94912 | -90.01049 | 3242 ft | 198 kts | 213° |
| 2026-05-06 01:37 | 34.93901 | -90.02202 | 3665 ft | 210 kts | 237° |
| 2026-05-06 01:37 | 34.93402 | -90.03924 | 4134 ft | 227 kts | 262° |
| 2026-05-06 01:37 | 34.93536 | -90.05926 | 4653 ft | 243 kts | 274° |
| 2026-05-06 01:38 | 34.93781 | -90.07999 | 5189 ft | 253 kts | 272° |
| 2026-05-06 01:38 | 34.93952 | -90.10120 | 5957 ft | 254 kts | 272° |
| 2026-05-06 01:38 | 34.94279 | -90.12238 | 6682 ft | 259 kts | 280° |
| 2026-05-06 01:38 | 34.94703 | -90.14326 | 7420 ft | 260 kts | 280° |
| 2026-05-06 01:39 | 34.95092 | -90.16480 | 8114 ft | 262 kts | 278° |
| 2026-05-06 01:39 | 34.95450 | -90.18609 | 9030 ft | 256 kts | 279° |
| 2026-05-06 01:39 | 34.95799 | -90.20783 | 9534 ft | 265 kts | 277° |
| 2026-05-06 01:39 | 34.96059 | -90.22948 | 10418 ft | 259 kts | 276° |
| 2026-05-06 01:40 | 34.96320 | -90.25166 | 10815 ft | 272 kts | 276° |
| 2026-05-06 01:40 | 34.96603 | -90.27502 | 11158 ft | 287 kts | 276° |
| 2026-05-06 01:40 | 34.96907 | -90.29984 | 11463 ft | 304 kts | 277° |
| 2026-05-06 01:40 | 34.97228 | -90.32604 | 11766 ft | 321 kts | 277° |
| 2026-05-06 01:41 | 34.97567 | -90.35340 | 12149 ft | 336 kts | 277° |
| 2026-05-06 01:41 | 34.97915 | -90.38170 | 12885 ft | 340 kts | 277° |
| 2026-05-06 01:41 | 34.98270 | -90.41047 | 13697 ft | 342 kts | 277° |
| 2026-05-06 01:41 | 34.98621 | -90.43900 | 14459 ft | 343 kts | 277° |
| 2026-05-06 01:42 | 34.98972 | -90.46752 | 15180 ft | 345 kts | 277° |
| 2026-05-06 01:42 | 34.99263 | -90.49130 | 15753 ft | 347 kts | 277° |
| 2026-05-06 01:42 | 34.99618 | -90.52039 | 16483 ft | 349 kts | 276° |
| 2026-05-06 01:42 | 34.99974 | -90.54964 | 17145 ft | 351 kts | 277° |
| 2026-05-06 01:43 | 35.00335 | -90.57914 | 17753 ft | 354 kts | 276° |
| 2026-05-06 01:43 | 35.00696 | -90.60876 | 18369 ft | 357 kts | 277° |
| 2026-05-06 01:43 | 35.01056 | -90.63869 | 18977 ft | 359 kts | 277° |
| 2026-05-06 01:43 | 35.01423 | -90.66888 | 19443 ft | 366 kts | 276° |
| 2026-05-06 01:44 | 35.01793 | -90.69959 | 20060 ft | 368 kts | 277° |
| 2026-05-06 01:44 | 35.02167 | -90.73065 | 20561 ft | 372 kts | 277° |
| 2026-05-06 01:44 | 35.02378 | -90.76194 | 21071 ft | 376 kts | 270° |
| 2026-05-06 01:44 | 35.02389 | -90.79418 | 21593 ft | 378 kts | 271° |
| 2026-05-06 01:45 | 35.02422 | -90.82606 | 22036 ft | 383 kts | 271° |
| 2026-05-06 01:45 | 35.02455 | -90.85895 | 22574 ft | 385 kts | 272° |
| 2026-05-06 01:45 | 35.02586 | -90.89166 | 22957 ft | 391 kts | 273° |
| 2026-05-06 01:45 | 35.02714 | -90.92457 | 23548 ft | 391 kts | 273° |
| 2026-05-06 01:46 | 35.02848 | -90.95771 | 24087 ft | 393 kts | 273° |
| 2026-05-06 01:46 | 35.02979 | -90.99106 | 24593 ft | 395 kts | 273° |
| 2026-05-06 01:46 | 35.03110 | -91.02457 | 25201 ft | 395 kts | 272° |
| 2026-05-06 01:46 | 35.03239 | -91.05809 | 25666 ft | 398 kts | 273° |
| 2026-05-06 01:47 | 35.03366 | -91.09151 | 26195 ft | 399 kts | 272° |
| 2026-05-06 01:47 | 35.03494 | -91.12543 | 26606 ft | 402 kts | 273° |
| 2026-05-06 01:47 | 35.03622 | -91.15935 | 27230 ft | 401 kts | 272° |
| 2026-05-06 01:47 | 35.03747 | -91.19323 | 27572 ft | 405 kts | 273° |
| 2026-05-06 01:48 | 35.03874 | -91.22756 | 28210 ft | 401 kts | 272° |
| 2026-05-06 01:48 | 35.03998 | -91.26131 | 28883 ft | 397 kts | 272° |
| 2026-05-06 01:48 | 35.04120 | -91.29494 | 29466 ft | 394 kts | 272° |
| 2026-05-06 01:48 | 35.04238 | -91.32796 | 29794 ft | 391 kts | 272° |
| 2026-05-06 01:49 | 35.04472 | -91.39368 | 29770 ft | 384 kts | 272° |
| 2026-05-06 01:49 | 35.04700 | -91.45875 | 29695 ft | 388 kts | 272° |
| 2026-05-06 01:50 | 35.04927 | -91.52471 | 29781 ft | 395 kts | 272° |
| 2026-05-06 01:50 | 35.05156 | -91.59193 | 29765 ft | 397 kts | 272° |
| 2026-05-06 01:51 | 35.05381 | -91.65923 | 29777 ft | 395 kts | 272° |
| 2026-05-06 01:51 | 35.05596 | -91.72475 | 29800 ft | 399 kts | 272° |
| 2026-05-06 01:52 | 35.05812 | -91.79131 | 29794 ft | 388 kts | 271° |
| 2026-05-06 01:52 | 35.06016 | -91.85569 | 29795 ft | 377 kts | 271° |
| 2026-05-06 01:53 | 35.06219 | -91.92051 | 29796 ft | 388 kts | 271° |
| 2026-05-06 01:53 | 35.06421 | -91.98656 | 29792 ft | 389 kts | 272° |
| 2026-05-06 01:54 | 35.06617 | -92.05170 | 29792 ft | 384 kts | 272° |
| 2026-05-06 01:54 | 35.06810 | -92.11681 | 29782 ft | 385 kts | 271° |
| 2026-05-06 01:55 | 35.07001 | -92.18224 | 29789 ft | 387 kts | 271° |
| 2026-05-06 01:55 | 35.07188 | -92.24758 | 29775 ft | 386 kts | 271° |
| 2026-05-06 01:56 | 35.07371 | -92.31317 | 29770 ft | 385 kts | 271° |
| 2026-05-06 01:56 | 35.07550 | -92.37825 | 29785 ft | 385 kts | 271° |
| 2026-05-06 01:57 | 35.07726 | -92.44362 | 29771 ft | 385 kts | 271° |
| 2026-05-06 01:57 | 35.07898 | -92.50861 | 29782 ft | 385 kts | 271° |
| 2026-05-06 01:58 | 35.08069 | -92.57423 | 29773 ft | 385 kts | 271° |
| 2026-05-06 01:58 | 35.08234 | -92.63955 | 29763 ft | 385 kts | 271° |
| 2026-05-06 01:59 | 35.08394 | -92.70440 | 29801 ft | 385 kts | 271° |
| 2026-05-06 01:59 | 35.08554 | -92.76979 | 29787 ft | 383 kts | 270° |
| 2026-05-06 02:00 | 35.08706 | -92.83477 | 29788 ft | 386 kts | 270° |
| 2026-05-06 02:00 | 35.08859 | -92.90035 | 29777 ft | 388 kts | 271° |
| 2026-05-06 02:01 | 35.09008 | -92.96562 | 29777 ft | 384 kts | 270° |
| 2026-05-06 02:01 | 35.09152 | -93.03073 | 29790 ft | 385 kts | 270° |
| 2026-05-06 02:02 | 35.09292 | -93.09603 | 29779 ft | 384 kts | 270° |
| 2026-05-06 02:02 | 35.09429 | -93.16059 | 29781 ft | 382 kts | 270° |
| 2026-05-06 02:03 | 35.09562 | -93.22537 | 29781 ft | 382 kts | 270° |
| 2026-05-06 02:03 | 35.09690 | -93.29016 | 29785 ft | 384 kts | 269° |
| 2026-05-06 02:04 | 35.09817 | -93.35509 | 29764 ft | 382 kts | 269° |
| 2026-05-06 02:04 | 35.09940 | -93.41972 | 29764 ft | 380 kts | 270° |
| 2026-05-06 02:05 | 35.10057 | -93.48411 | 29765 ft | 381 kts | 270° |
| 2026-05-06 02:05 | 35.10173 | -93.54864 | 29772 ft | 379 kts | 270° |
| 2026-05-06 02:06 | 35.10284 | -93.61271 | 29773 ft | 379 kts | 270° |
| 2026-05-06 02:06 | 35.10392 | -93.67695 | 29814 ft | 380 kts | 269° |
| 2026-05-06 02:07 | 35.10497 | -93.74165 | 29821 ft | 387 kts | 269° |
| 2026-05-06 02:07 | 35.10599 | -93.80709 | 29811 ft | 382 kts | 269° |
| 2026-05-06 02:08 | 35.10698 | -93.87063 | 29812 ft | 371 kts | 269° |
| 2026-05-06 02:08 | 35.10790 | -93.93371 | 29818 ft | 374 kts | 269° |
| 2026-05-06 02:09 | 35.10880 | -93.99727 | 29811 ft | 374 kts | 269° |
| 2026-05-06 02:09 | 35.10966 | -94.06052 | 29805 ft | 373 kts | 268° |
| 2026-05-06 02:10 | 35.11049 | -94.12341 | 29804 ft | 373 kts | 269° |
| 2026-05-06 02:10 | 35.11128 | -94.18665 | 29822 ft | 373 kts | 268° |
| 2026-05-06 02:11 | 35.11205 | -94.25002 | 29822 ft | 374 kts | 269° |
| 2026-05-06 02:11 | 35.11277 | -94.31299 | 29830 ft | 373 kts | 268° |
| 2026-05-06 02:12 | 35.11347 | -94.37643 | 29823 ft | 373 kts | 269° |
| 2026-05-06 02:12 | 35.11414 | -94.43901 | 29825 ft | 374 kts | 268° |
| 2026-05-06 02:13 | 35.11476 | -94.50213 | 29815 ft | 375 kts | 268° |
| 2026-05-06 02:14 | 35.11597 | -94.63236 | 29819 ft | 373 kts | 268° |
| 2026-05-06 02:14 | 35.11650 | -94.69580 | 29851 ft | 374 kts | 268° |
| 2026-05-06 02:15 | 35.11700 | -94.75942 | 29843 ft | 373 kts | 268° |
| 2026-05-06 02:15 | 35.11747 | -94.82237 | 29853 ft | 373 kts | 267° |
| 2026-05-06 02:16 | 35.11791 | -94.88571 | 29833 ft | 373 kts | 268° |
| 2026-05-06 02:16 | 35.11831 | -94.94864 | 29862 ft | 372 kts | 267° |
| 2026-05-06 02:17 | 35.11867 | -95.01219 | 29859 ft | 377 kts | 267° |
| 2026-05-06 02:17 | 35.11902 | -95.07616 | 29862 ft | 375 kts | 268° |
| 2026-05-06 02:18 | 35.11933 | -95.13954 | 29848 ft | 374 kts | 267° |
| 2026-05-06 02:18 | 35.11958 | -95.20272 | 29860 ft | 373 kts | 266° |
| 2026-05-06 02:19 | 35.11982 | -95.26612 | 29863 ft | 376 kts | 268° |
| 2026-05-06 02:19 | 35.12003 | -95.32978 | 29869 ft | 375 kts | 267° |
| 2026-05-06 02:20 | 35.12028 | -95.42466 | 29858 ft | 374 kts | 266° |
| 2026-05-06 02:21 | 35.12115 | -95.48834 | 29862 ft | 376 kts | 269° |
| 2026-05-06 02:21 | 35.12382 | -95.55206 | 29871 ft | 378 kts | 269° |
| 2026-05-06 02:22 | 35.12639 | -95.61588 | 29870 ft | 377 kts | 269° |
| 2026-05-06 02:22 | 35.12892 | -95.67965 | 29901 ft | 377 kts | 268° |
| 2026-05-06 02:23 | 35.13144 | -95.74362 | 29900 ft | 378 kts | 268° |
| 2026-05-06 02:23 | 35.13390 | -95.80759 | 29899 ft | 377 kts | 269° |
| 2026-05-06 02:24 | 35.13632 | -95.87120 | 29908 ft | 378 kts | 268° |
| 2026-05-06 02:24 | 35.13873 | -95.93557 | 29906 ft | 379 kts | 268° |
| 2026-05-06 02:25 | 35.14108 | -95.99916 | 29901 ft | 377 kts | 268° |
| 2026-05-06 02:25 | 35.14343 | -96.06337 | 29900 ft | 378 kts | 268° |
| 2026-05-06 02:26 | 35.14571 | -96.12740 | 29908 ft | 379 kts | 268° |
| 2026-05-06 02:26 | 35.14798 | -96.19146 | 29904 ft | 378 kts | 268° |
| 2026-05-06 02:27 | 35.15020 | -96.25536 | 29904 ft | 378 kts | 269° |
| 2026-05-06 02:27 | 35.15240 | -96.31924 | 29902 ft | 379 kts | 269° |
| 2026-05-06 02:28 | 35.15456 | -96.38336 | 29900 ft | 378 kts | 268° |
| 2026-05-06 02:28 | 35.15669 | -96.44736 | 29907 ft | 379 kts | 268° |
| 2026-05-06 02:29 | 35.15881 | -96.51182 | 29898 ft | 378 kts | 268° |
| 2026-05-06 02:29 | 35.16085 | -96.57532 | 29902 ft | 378 kts | 268° |
| 2026-05-06 02:30 | 35.16288 | -96.63944 | 29907 ft | 378 kts | 268° |
| 2026-05-06 02:30 | 35.16487 | -96.70346 | 29926 ft | 380 kts | 268° |
| 2026-05-06 02:31 | 35.16684 | -96.76756 | 29933 ft | 378 kts | 268° |
| 2026-05-06 02:31 | 35.16877 | -96.83164 | 29938 ft | 379 kts | 268° |
| 2026-05-06 02:32 | 35.17065 | -96.89582 | 29927 ft | 379 kts | 268° |
| 2026-05-06 02:32 | 35.17254 | -96.96026 | 29921 ft | 381 kts | 268° |
| 2026-05-06 02:33 | 35.17436 | -97.02450 | 29921 ft | 380 kts | 268° |
| 2026-05-06 02:33 | 35.17497 | -97.04600 | 29925 ft | 380 kts | 268° |
| 2026-05-06 02:34 | 35.17794 | -97.15348 | 29946 ft | 380 kts | 268° |
| 2026-05-06 02:34 | 35.17966 | -97.21761 | 29940 ft | 379 kts | 267° |
| 2026-05-06 02:35 | 35.18137 | -97.28208 | 29934 ft | 380 kts | 268° |
| 2026-05-06 02:35 | 35.18303 | -97.34652 | 29939 ft | 381 kts | 268° |
| 2026-05-06 02:36 | 35.18465 | -97.41103 | 29941 ft | 380 kts | 268° |
| 2026-05-06 02:36 | 35.18626 | -97.47540 | 29936 ft | 380 kts | 268° |
| 2026-05-06 02:37 | 35.18783 | -97.54010 | 29924 ft | 382 kts | 268° |
| 2026-05-06 02:37 | 35.18937 | -97.60514 | 29946 ft | 381 kts | 268° |
| 2026-05-06 02:38 | 35.19086 | -97.66924 | 29952 ft | 380 kts | 268° |
| 2026-05-06 02:38 | 35.19231 | -97.73364 | 29960 ft | 381 kts | 268° |
| 2026-05-06 02:39 | 35.19374 | -97.79833 | 29950 ft | 380 kts | 267° |
| 2026-05-06 02:39 | 35.19513 | -97.86255 | 29957 ft | 380 kts | 268° |
| 2026-05-06 02:40 | 35.19650 | -97.92741 | 29944 ft | 382 kts | 267° |
| 2026-05-06 02:40 | 35.19783 | -97.99198 | 29946 ft | 380 kts | 267° |
| 2026-05-06 02:41 | 35.19912 | -98.05650 | 29950 ft | 382 kts | 268° |
| 2026-05-06 02:41 | 35.20039 | -98.12123 | 29940 ft | 380 kts | 267° |
| 2026-05-06 02:42 | 35.20159 | -98.18542 | 29942 ft | 381 kts | 268° |
| 2026-05-06 02:42 | 35.20279 | -98.25028 | 29942 ft | 380 kts | 267° |
| 2026-05-06 02:43 | 35.20394 | -98.31457 | 29936 ft | 380 kts | 267° |
| 2026-05-06 02:43 | 35.20507 | -98.37912 | 29936 ft | 380 kts | 268° |
| 2026-05-06 02:44 | 35.20614 | -98.44353 | 29939 ft | 380 kts | 268° |
| 2026-05-06 02:44 | 35.20719 | -98.50789 | 29939 ft | 379 kts | 267° |
| 2026-05-06 02:45 | 35.20820 | -98.57195 | 29935 ft | 380 kts | 267° |
| 2026-05-06 02:45 | 35.20918 | -98.63673 | 29939 ft | 381 kts | 268° |
| 2026-05-06 02:46 | 35.21014 | -98.70124 | 29953 ft | 379 kts | 267° |
| 2026-05-06 02:46 | 35.21104 | -98.76561 | 29953 ft | 380 kts | 267° |
| 2026-05-06 02:47 | 35.21193 | -98.82975 | 29952 ft | 380 kts | 266° |
| 2026-05-06 02:47 | 35.21278 | -98.89448 | 29956 ft | 379 kts | 267° |
| 2026-05-06 02:48 | 35.21358 | -98.95864 | 29957 ft | 379 kts | 266° |
| 2026-05-06 02:48 | 35.21435 | -99.02296 | 29954 ft | 380 kts | 266° |
| 2026-05-06 02:49 | 35.21510 | -99.08734 | 29961 ft | 379 kts | 266° |
| 2026-05-06 02:49 | 35.21580 | -99.15159 | 29965 ft | 379 kts | 266° |
| 2026-05-06 02:50 | 35.21647 | -99.21616 | 29957 ft | 380 kts | 266° |
| 2026-05-06 02:50 | 35.21711 | -99.28053 | 29955 ft | 380 kts | 267° |
| 2026-05-06 02:51 | 35.21772 | -99.34518 | 29967 ft | 380 kts | 266° |
| 2026-05-06 02:51 | 35.21830 | -99.40932 | 29962 ft | 380 kts | 266° |
| 2026-05-06 02:52 | 35.21883 | -99.47378 | 29944 ft | 380 kts | 266° |
| 2026-05-06 02:52 | 35.21934 | -99.53835 | 29957 ft | 380 kts | 266° |
| 2026-05-06 02:53 | 35.21980 | -99.60290 | 29947 ft | 380 kts | 267° |
| 2026-05-06 02:53 | 35.22023 | -99.66712 | 29963 ft | 380 kts | 266° |
| 2026-05-06 02:54 | 35.22064 | -99.73204 | 29972 ft | 379 kts | 266° |
| 2026-05-06 02:54 | 35.22101 | -99.79634 | 29963 ft | 380 kts | 266° |
| 2026-05-06 02:55 | 35.22134 | -99.86044 | 29961 ft | 379 kts | 266° |
| 2026-05-06 02:55 | 35.22164 | -99.92503 | 29959 ft | 381 kts | 266° |
| 2026-05-06 02:56 | 35.22190 | -99.98958 | 29963 ft | 379 kts | 266° |
| 2026-05-06 02:56 | 35.22214 | -100.05369 | 29958 ft | 379 kts | 266° |
| 2026-05-06 02:57 | 35.22233 | -100.11847 | 29961 ft | 381 kts | 266° |
| 2026-05-06 02:57 | 35.22249 | -100.18327 | 29944 ft | 380 kts | 267° |
| 2026-05-06 02:58 | 35.22261 | -100.24740 | 29950 ft | 380 kts | 266° |
| 2026-05-06 02:58 | 35.22271 | -100.31184 | 29956 ft | 379 kts | 266° |
| 2026-05-06 02:59 | 35.22277 | -100.37630 | 29938 ft | 379 kts | 266° |
| 2026-05-06 02:59 | 35.22280 | -100.44068 | 29937 ft | 380 kts | 267° |
| 2026-05-06 03:00 | 35.22281 | -100.50492 | 29940 ft | 381 kts | 266° |
| 2026-05-06 03:00 | 35.22275 | -100.56952 | 29928 ft | 380 kts | 266° |
| 2026-05-06 03:01 | 35.22267 | -100.63434 | 29927 ft | 381 kts | 266° |
| 2026-05-06 03:01 | 35.22255 | -100.69923 | 29944 ft | 381 kts | 266° |
| 2026-05-06 03:02 | 35.22242 | -100.76377 | 29943 ft | 380 kts | 266° |
| 2026-05-06 03:02 | 35.22223 | -100.82812 | 29940 ft | 380 kts | 266° |
| 2026-05-06 03:03 | 35.22202 | -100.89282 | 29951 ft | 380 kts | 266° |
| 2026-05-06 03:03 | 35.22178 | -100.95682 | 29958 ft | 378 kts | 266° |
| 2026-05-06 03:04 | 35.22149 | -101.02148 | 29949 ft | 380 kts | 265° |
| 2026-05-06 03:04 | 35.22117 | -101.08558 | 29948 ft | 378 kts | 266° |
| 2026-05-06 03:05 | 35.22083 | -101.14975 | 29945 ft | 378 kts | 266° |
| 2026-05-06 03:05 | 35.22044 | -101.21408 | 29947 ft | 379 kts | 265° |
| 2026-05-06 03:06 | 35.22003 | -101.27863 | 29941 ft | 378 kts | 265° |
| 2026-05-06 03:06 | 35.21957 | -101.34275 | 29935 ft | 377 kts | 265° |
| 2026-05-06 03:07 | 35.21908 | -101.40649 | 29932 ft | 376 kts | 266° |
| 2026-05-06 03:07 | 35.21857 | -101.47071 | 29932 ft | 378 kts | 266° |
| 2026-05-06 03:08 | 35.21804 | -101.53451 | 29941 ft | 377 kts | 265° |
| 2026-05-06 03:08 | 35.21743 | -101.59885 | 29955 ft | 378 kts | 265° |
| 2026-05-06 03:09 | 35.21682 | -101.66275 | 29952 ft | 375 kts | 264° |
| 2026-05-06 03:09 | 35.21616 | -101.72677 | 29967 ft | 376 kts | 265° |
| 2026-05-06 03:10 | 35.21549 | -101.79092 | 29962 ft | 376 kts | 264° |
| 2026-05-06 03:10 | 35.21477 | -101.85446 | 29963 ft | 375 kts | 264° |
| 2026-05-06 03:11 | 35.21401 | -101.91808 | 29949 ft | 376 kts | 265° |
| 2026-05-06 03:11 | 35.21323 | -101.98187 | 29933 ft | 376 kts | 264° |
| 2026-05-06 03:12 | 35.21241 | -102.04574 | 29925 ft | 377 kts | 265° |
| 2026-05-06 03:12 | 35.21155 | -102.10958 | 29922 ft | 375 kts | 264° |
| 2026-05-06 03:13 | 35.21069 | -102.17300 | 29922 ft | 375 kts | 263° |
| 2026-05-06 03:13 | 35.20976 | -102.23711 | 29928 ft | 378 kts | 265° |
| 2026-05-06 03:14 | 35.20880 | -102.30090 | 29929 ft | 374 kts | 263° |
| 2026-05-06 03:14 | 35.20782 | -102.36468 | 29927 ft | 375 kts | 264° |
| 2026-05-06 03:15 | 35.20683 | -102.42812 | 29928 ft | 377 kts | 264° |
| 2026-05-06 03:15 | 35.20576 | -102.49189 | 29923 ft | 375 kts | 263° |
| 2026-05-06 03:16 | 35.20466 | -102.55578 | 29923 ft | 376 kts | 264° |
| 2026-05-06 03:16 | 35.20359 | -102.61801 | 29924 ft | 376 kts | 264° |
| 2026-05-06 03:17 | 35.20242 | -102.68231 | 29951 ft | 378 kts | 263° |
| 2026-05-06 03:17 | 35.20123 | -102.74629 | 29945 ft | 375 kts | 263° |
| 2026-05-06 03:18 | 35.20003 | -102.80960 | 29945 ft | 376 kts | 263° |
| 2026-05-06 03:18 | 35.19876 | -102.87386 | 29943 ft | 380 kts | 263° |
| 2026-05-06 03:19 | 35.19747 | -102.93828 | 29936 ft | 378 kts | 263° |
| 2026-05-06 03:19 | 35.19614 | -103.00227 | 29933 ft | 376 kts | 264° |
| 2026-05-06 03:20 | 35.19408 | -103.09841 | 29927 ft | 380 kts | 263° |
| 2026-05-06 03:20 | 35.19268 | -103.16258 | 29925 ft | 377 kts | 263° |
| 2026-05-06 03:21 | 35.19123 | -103.22677 | 29921 ft | 379 kts | 263° |
| 2026-05-06 03:21 | 35.18974 | -103.29136 | 29925 ft | 380 kts | 263° |
| 2026-05-06 03:22 | 35.18824 | -103.35544 | 29933 ft | 378 kts | 262° |
| 2026-05-06 03:22 | 35.18669 | -103.41972 | 29925 ft | 378 kts | 263° |
| 2026-05-06 03:23 | 35.18510 | -103.48389 | 29913 ft | 380 kts | 262° |
| 2026-05-06 03:23 | 35.18349 | -103.54842 | 29879 ft | 380 kts | 262° |
| 2026-05-06 03:24 | 35.18191 | -103.61328 | 29872 ft | 382 kts | 263° |
| 2026-05-06 03:24 | 35.18079 | -103.67765 | 29898 ft | 379 kts | 263° |
| 2026-05-06 03:25 | 35.17960 | -103.74253 | 29915 ft | 381 kts | 263° |
| 2026-05-06 03:25 | 35.17842 | -103.80698 | 29942 ft | 380 kts | 262° |
| 2026-05-06 03:26 | 35.17715 | -103.87141 | 29953 ft | 381 kts | 263° |
| 2026-05-06 03:26 | 35.17587 | -103.93613 | 29958 ft | 381 kts | 263° |
| 2026-05-06 03:27 | 35.17456 | -104.00062 | 29954 ft | 382 kts | 262° |
| 2026-05-06 03:27 | 35.17319 | -104.06565 | 29959 ft | 382 kts | 263° |
| 2026-05-06 03:28 | 35.17181 | -104.13046 | 29964 ft | 382 kts | 262° |
| 2026-05-06 03:28 | 35.17039 | -104.19521 | 29960 ft | 383 kts | 262° |
| 2026-05-06 03:29 | 35.16892 | -104.26022 | 29955 ft | 382 kts | 263° |
| 2026-05-06 03:29 | 35.16743 | -104.32496 | 29956 ft | 382 kts | 263° |
| 2026-05-06 03:30 | 35.16592 | -104.38933 | 29955 ft | 381 kts | 262° |
| 2026-05-06 03:30 | 35.16436 | -104.45418 | 29951 ft | 382 kts | 263° |
| 2026-05-06 03:31 | 35.16275 | -104.51908 | 29954 ft | 382 kts | 262° |
| 2026-05-06 03:31 | 35.16114 | -104.58338 | 29952 ft | 381 kts | 263° |
| 2026-05-06 03:32 | 35.15947 | -104.64829 | 29946 ft | 383 kts | 262° |
| 2026-05-06 03:32 | 35.15776 | -104.71339 | 29961 ft | 382 kts | 262° |
| 2026-05-06 03:33 | 35.15603 | -104.77760 | 29966 ft | 380 kts | 262° |
| 2026-05-06 03:33 | 35.15429 | -104.84203 | 29972 ft | 380 kts | 261° |
| 2026-05-06 03:34 | 35.15247 | -104.90690 | 29970 ft | 383 kts | 262° |
| 2026-05-06 03:34 | 35.15065 | -104.97154 | 29965 ft | 381 kts | 261° |
| 2026-05-06 03:35 | 35.14879 | -105.03572 | 29976 ft | 380 kts | 262° |
| 2026-05-06 03:35 | 35.14688 | -105.10031 | 29974 ft | 380 kts | 262° |
| 2026-05-06 03:36 | 35.14494 | -105.16495 | 29987 ft | 381 kts | 262° |
| 2026-05-06 03:36 | 35.14300 | -105.22934 | 29992 ft | 379 kts | 261° |
| 2026-05-06 03:37 | 35.14098 | -105.29353 | 29996 ft | 382 kts | 262° |
| 2026-05-06 03:37 | 35.13896 | -105.35794 | 29991 ft | 379 kts | 261° |
| 2026-05-06 03:38 | 35.13691 | -105.42231 | 30002 ft | 378 kts | 261° |
| 2026-05-06 03:38 | 35.13481 | -105.48637 | 29996 ft | 379 kts | 262° |
| 2026-05-06 03:39 | 35.13269 | -105.55022 | 29999 ft | 376 kts | 262° |
| 2026-05-06 03:39 | 35.13054 | -105.61402 | 29994 ft | 377 kts | 261° |
| 2026-05-06 03:40 | 35.12835 | -105.67799 | 30016 ft | 377 kts | 261° |
| 2026-05-06 03:40 | 35.12613 | -105.74175 | 30020 ft | 376 kts | 261° |
| 2026-05-06 03:41 | 35.12390 | -105.80547 | 30014 ft | 375 kts | 261° |
| 2026-05-06 03:41 | 35.12163 | -105.86905 | 30016 ft | 375 kts | 261° |
| 2026-05-06 03:42 | 35.11932 | -105.93216 | 30011 ft | 375 kts | 261° |
| 2026-05-06 03:42 | 35.11700 | -105.99577 | 30012 ft | 375 kts | 261° |
| 2026-05-06 03:43 | 35.11463 | -106.05905 | 30003 ft | 375 kts | 261° |
| 2026-05-06 03:43 | 35.11222 | -106.12284 | 30000 ft | 376 kts | 261° |
| 2026-05-06 03:44 | 35.10980 | -106.18607 | 30007 ft | 374 kts | 261° |
| 2026-05-06 03:44 | 35.10730 | -106.24976 | 30009 ft | 375 kts | 261° |
| 2026-05-06 03:45 | 35.10479 | -106.31335 | 30000 ft | 377 kts | 261° |
| 2026-05-06 03:45 | 35.10223 | -106.37742 | 30003 ft | 377 kts | 261° |
| 2026-05-06 03:46 | 35.09966 | -106.44125 | 29989 ft | 377 kts | 260° |
| 2026-05-06 03:46 | 35.09703 | -106.50520 | 29971 ft | 378 kts | 261° |
| 2026-05-06 03:47 | 35.09439 | -106.56894 | 29952 ft | 378 kts | 261° |
| 2026-05-06 03:47 | 35.09170 | -106.63296 | 29959 ft | 378 kts | 261° |
| 2026-05-06 03:48 | 35.08896 | -106.69716 | 29970 ft | 380 kts | 260° |
| 2026-05-06 03:48 | 35.08619 | -106.76149 | 29958 ft | 379 kts | 260° |
| 2026-05-06 03:49 | 35.08338 | -106.82543 | 29969 ft | 379 kts | 261° |
| 2026-05-06 03:49 | 35.08055 | -106.88945 | 29964 ft | 380 kts | 260° |
| 2026-05-06 03:50 | 35.07767 | -106.95391 | 29972 ft | 382 kts | 260° |
| 2026-05-06 03:50 | 35.07477 | -107.01814 | 29994 ft | 380 kts | 260° |
| 2026-05-06 03:51 | 35.07182 | -107.08234 | 30015 ft | 380 kts | 261° |
| 2026-05-06 03:51 | 35.06885 | -107.14672 | 30004 ft | 381 kts | 260° |
| 2026-05-06 03:52 | 35.06584 | -107.21133 | 30009 ft | 381 kts | 260° |
| 2026-05-06 03:52 | 35.06276 | -107.27604 | 30010 ft | 380 kts | 261° |
| 2026-05-06 03:53 | 35.05971 | -107.33986 | 29993 ft | 380 kts | 260° |
| 2026-05-06 03:53 | 35.05659 | -107.40421 | 29998 ft | 381 kts | 261° |
| 2026-05-06 03:54 | 35.05341 | -107.46895 | 29995 ft | 381 kts | 261° |
| 2026-05-06 03:54 | 35.05026 | -107.53280 | 30007 ft | 380 kts | 260° |
| 2026-05-06 03:55 | 35.04703 | -107.59714 | 30001 ft | 379 kts | 260° |
| 2026-05-06 03:55 | 35.04379 | -107.66139 | 30022 ft | 379 kts | 259° |
| 2026-05-06 03:56 | 35.04050 | -107.72576 | 30040 ft | 380 kts | 259° |
| 2026-05-06 03:56 | 35.03718 | -107.78995 | 30037 ft | 379 kts | 260° |
| 2026-05-06 03:57 | 35.03388 | -107.85368 | 30061 ft | 378 kts | 259° |
| 2026-05-06 03:57 | 35.03050 | -107.91750 | 30049 ft | 377 kts | 260° |
| 2026-05-06 03:58 | 35.02713 | -107.98099 | 30062 ft | 377 kts | 259° |
| 2026-05-06 03:58 | 35.02365 | -108.04512 | 30058 ft | 381 kts | 260° |
| 2026-05-06 03:59 | 35.02019 | -108.10934 | 30059 ft | 377 kts | 260° |
| 2026-05-06 03:59 | 35.01671 | -108.17306 | 30063 ft | 379 kts | 259° |
| 2026-05-06 04:00 | 35.01313 | -108.23729 | 30038 ft | 384 kts | 259° |
| 2026-05-06 04:00 | 35.00952 | -108.30193 | 30035 ft | 380 kts | 260° |
| 2026-05-06 04:01 | 35.00595 | -108.36559 | 30040 ft | 380 kts | 260° |
| 2026-05-06 04:01 | 35.00227 | -108.43024 | 30034 ft | 381 kts | 260° |
| 2026-05-06 04:02 | 34.99856 | -108.49458 | 30036 ft | 380 kts | 260° |
| 2026-05-06 04:02 | 34.99482 | -108.55883 | 30017 ft | 383 kts | 260° |
| 2026-05-06 04:03 | 34.99104 | -108.62367 | 30021 ft | 382 kts | 260° |
| 2026-05-06 04:03 | 34.98721 | -108.68855 | 30045 ft | 383 kts | 259° |
| 2026-05-06 04:04 | 34.98337 | -108.75317 | 30044 ft | 383 kts | 259° |
| 2026-05-06 04:04 | 34.97946 | -108.81781 | 30045 ft | 384 kts | 258° |
| 2026-05-06 04:05 | 34.97555 | -108.88254 | 30030 ft | 383 kts | 259° |
| 2026-05-06 04:05 | 34.97158 | -108.94743 | 30020 ft | 385 kts | 259° |
| 2026-05-06 04:06 | 34.96756 | -109.01234 | 30021 ft | 386 kts | 259° |
| 2026-05-06 04:06 | 34.96349 | -109.07770 | 30027 ft | 390 kts | 259° |
| 2026-05-06 04:07 | 34.95932 | -109.14393 | 30026 ft | 391 kts | 260° |
| 2026-05-06 04:07 | 34.95518 | -109.20957 | 30023 ft | 390 kts | 260° |
| 2026-05-06 04:08 | 34.95094 | -109.27577 | 30021 ft | 394 kts | 259° |
| 2026-05-06 04:08 | 34.94663 | -109.34239 | 30014 ft | 396 kts | 259° |
| 2026-05-06 04:09 | 34.94230 | -109.40929 | 30009 ft | 396 kts | 259° |
| 2026-05-06 04:09 | 34.93789 | -109.47626 | 30018 ft | 397 kts | 260° |
| 2026-05-06 04:10 | 34.93346 | -109.54321 | 30013 ft | 398 kts | 260° |
| 2026-05-06 04:10 | 34.92897 | -109.61064 | 30005 ft | 404 kts | 261° |
| 2026-05-06 04:11 | 34.92442 | -109.67860 | 30030 ft | 400 kts | 260° |
| 2026-05-06 04:11 | 34.91981 | -109.74629 | 30031 ft | 404 kts | 260° |
| 2026-05-06 04:12 | 34.91513 | -109.81465 | 30024 ft | 406 kts | 261° |
| 2026-05-06 04:12 | 34.91043 | -109.88290 | 30029 ft | 407 kts | 261° |
| 2026-05-06 04:13 | 34.90566 | -109.95155 | 30023 ft | 407 kts | 261° |
| 2026-05-06 04:13 | 34.90091 | -110.01952 | 30033 ft | 406 kts | 260° |
| 2026-05-06 04:14 | 34.89599 | -110.08877 | 30051 ft | 412 kts | 261° |
| 2026-05-06 04:14 | 34.89104 | -110.15836 | 30043 ft | 412 kts | 261° |
| 2026-05-06 04:15 | 34.88602 | -110.22809 | 30033 ft | 417 kts | 261° |
| 2026-05-06 04:15 | 34.88097 | -110.29833 | 30025 ft | 415 kts | 261° |
| 2026-05-06 04:16 | 34.87584 | -110.36848 | 30031 ft | 417 kts | 261° |
| 2026-05-06 04:16 | 34.87063 | -110.43909 | 30013 ft | 424 kts | 262° |
| 2026-05-06 04:17 | 34.86539 | -110.50983 | 30018 ft | 422 kts | 262° |
| 2026-05-06 04:17 | 34.86004 | -110.58147 | 30021 ft | 426 kts | 262° |
| 2026-05-06 04:18 | 34.85465 | -110.65299 | 30020 ft | 425 kts | 261° |
| 2026-05-06 04:18 | 34.84917 | -110.72506 | 30030 ft | 428 kts | 262° |
| 2026-05-06 04:19 | 34.84362 | -110.79770 | 30029 ft | 432 kts | 262° |
| 2026-05-06 04:19 | 34.83799 | -110.87061 | 30031 ft | 433 kts | 262° |
| 2026-05-06 04:20 | 34.83232 | -110.94356 | 30021 ft | 437 kts | 262° |
| 2026-05-06 04:20 | 34.82655 | -111.01711 | 30019 ft | 436 kts | 262° |
| 2026-05-06 04:21 | 34.82077 | -111.09040 | 30031 ft | 434 kts | 262° |
| 2026-05-06 04:21 | 34.81497 | -111.16335 | 30033 ft | 435 kts | 262° |
| 2026-05-06 04:22 | 34.80911 | -111.23629 | 30033 ft | 437 kts | 263° |
| 2026-05-06 04:23 | 34.80012 | -111.34725 | 30034 ft | 441 kts | 264° |
| 2026-05-06 04:23 | 34.79403 | -111.42180 | 30027 ft | 442 kts | 263° |
| 2026-05-06 04:24 | 34.78798 | -111.49543 | 30033 ft | 440 kts | 264° |
| 2026-05-06 04:24 | 34.78181 | -111.56974 | 30038 ft | 441 kts | 264° |
| 2026-05-06 04:25 | 34.77557 | -111.64421 | 30042 ft | 445 kts | 264° |
| 2026-05-06 04:25 | 34.76928 | -111.71899 | 30039 ft | 450 kts | 264° |
| 2026-05-06 04:26 | 34.76288 | -111.79443 | 30038 ft | 448 kts | 264° |
| 2026-05-06 04:26 | 34.75641 | -111.87012 | 30038 ft | 454 kts | 264° |
| 2026-05-06 04:27 | 34.74982 | -111.94669 | 30048 ft | 456 kts | 264° |
| 2026-05-06 04:27 | 34.74318 | -112.02338 | 30043 ft | 457 kts | 264° |
| 2026-05-06 04:28 | 34.73650 | -112.09979 | 30046 ft | 454 kts | 264° |
| 2026-05-06 04:28 | 34.72984 | -112.17537 | 30047 ft | 451 kts | 265° |
| 2026-05-06 04:29 | 34.72304 | -112.25187 | 30047 ft | 458 kts | 265° |
| 2026-05-06 04:29 | 34.71622 | -112.32836 | 30052 ft | 456 kts | 265° |
| 2026-05-06 04:30 | 34.70933 | -112.40498 | 30043 ft | 458 kts | 266° |
| 2026-05-06 04:30 | 34.70219 | -112.48195 | 30054 ft | 456 kts | 265° |
| 2026-05-06 04:31 | 34.69366 | -112.55846 | 30048 ft | 465 kts | 265° |
| 2026-05-06 04:31 | 34.68485 | -112.63687 | 30045 ft | 469 kts | 266° |
| 2026-05-06 04:32 | 34.67596 | -112.71529 | 30045 ft | 469 kts | 265° |
| 2026-05-06 04:32 | 34.66695 | -112.79433 | 30052 ft | 478 kts | 265° |
| 2026-05-06 04:33 | 34.65775 | -112.87445 | 30045 ft | 480 kts | 266° |
| 2026-05-06 04:33 | 34.64845 | -112.95498 | 30056 ft | 481 kts | 266° |
| 2026-05-06 04:34 | 34.63895 | -113.03687 | 30053 ft | 495 kts | 265° |
| 2026-05-06 04:34 | 34.62929 | -113.11930 | 30033 ft | 496 kts | 266° |
| 2026-05-06 04:35 | 34.61961 | -113.20132 | 30024 ft | 484 kts | 266° |
| 2026-05-06 04:35 | 34.61009 | -113.28188 | 30024 ft | 485 kts | 266° |
| 2026-05-06 04:36 | 34.60043 | -113.36314 | 30022 ft | 488 kts | 266° |
| 2026-05-06 04:36 | 34.59068 | -113.44455 | 30025 ft | 485 kts | 266° |
| 2026-05-06 04:37 | 34.58095 | -113.52541 | 30021 ft | 486 kts | 266° |
| 2026-05-06 04:37 | 34.57111 | -113.60667 | 30025 ft | 488 kts | 266° |
| 2026-05-06 04:38 | 34.56122 | -113.68793 | 30005 ft | 489 kts | 265° |
| 2026-05-06 04:38 | 34.55130 | -113.76873 | 30006 ft | 479 kts | 265° |
| 2026-05-06 04:39 | 34.54136 | -113.84963 | 29982 ft | 484 kts | 265° |
| 2026-05-06 04:39 | 34.53146 | -113.92944 | 29996 ft | 483 kts | 266° |
| 2026-05-06 04:40 | 34.52143 | -114.01008 | 29967 ft | 486 kts | 265° |
| 2026-05-06 04:40 | 34.50812 | -114.08992 | 29969 ft | 484 kts | 260° |
| 2026-05-06 04:41 | 34.49170 | -114.16885 | 29948 ft | 487 kts | 260° |
| 2026-05-06 04:41 | 34.47491 | -114.24849 | 29951 ft | 490 kts | 260° |
| 2026-05-06 04:42 | 34.45797 | -114.32837 | 29942 ft | 492 kts | 260° |
| 2026-05-06 04:42 | 34.44060 | -114.40992 | 29955 ft | 501 kts | 259° |
| 2026-05-06 04:43 | 34.42316 | -114.49139 | 29951 ft | 502 kts | 259° |
| 2026-05-06 04:43 | 34.40554 | -114.57341 | 29950 ft | 504 kts | 259° |
| 2026-05-06 04:44 | 34.38784 | -114.65555 | 29946 ft | 504 kts | 258° |
| 2026-05-06 04:44 | 34.37016 | -114.73725 | 29947 ft | 503 kts | 258° |
| 2026-05-06 04:45 | 34.35238 | -114.81924 | 29940 ft | 508 kts | 258° |
| 2026-05-06 04:45 | 34.33436 | -114.90193 | 29947 ft | 507 kts | 258° |
| 2026-05-06 04:46 | 34.31633 | -114.98435 | 29943 ft | 510 kts | 257° |
| 2026-05-06 04:46 | 34.29813 | -115.06718 | 29935 ft | 511 kts | 257° |
| 2026-05-06 04:47 | 34.27983 | -115.15015 | 29943 ft | 509 kts | 257° |
| 2026-05-06 04:47 | 34.26165 | -115.23284 | 29953 ft | 512 kts | 258° |
| 2026-05-06 04:48 | 34.24394 | -115.31619 | 29952 ft | 510 kts | 258° |
| 2026-05-06 04:48 | 34.22637 | -115.39856 | 29967 ft | 508 kts | 258° |
| 2026-05-06 04:49 | 34.20856 | -115.48164 | 29968 ft | 511 kts | 258° |
| 2026-05-06 04:49 | 34.19063 | -115.56502 | 29973 ft | 515 kts | 258° |
| 2026-05-06 04:50 | 34.17275 | -115.64784 | 29980 ft | 513 kts | 258° |
| 2026-05-06 04:50 | 34.16000 | -115.73279 | 29993 ft | 512 kts | 266° |
| 2026-05-06 04:51 | 34.15157 | -115.81821 | 29985 ft | 516 kts | 265° |
| 2026-05-06 04:51 | 34.14314 | -115.90402 | 30001 ft | 516 kts | 266° |
| 2026-05-06 04:52 | 34.13465 | -115.99068 | 30002 ft | 519 kts | 265° |
| 2026-05-06 04:52 | 34.12622 | -116.07671 | 29531 ft | 524 kts | 266° |
| 2026-05-06 04:52 | 34.12193 | -116.12018 | 28965 ft | 520 kts | 266° |
| 2026-05-06 04:53 | 34.11763 | -116.16358 | 28379 ft | 514 kts | 266° |
| 2026-05-06 04:53 | 34.11343 | -116.20612 | 27835 ft | 508 kts | 266° |
| 2026-05-06 04:53 | 34.10928 | -116.24777 | 27232 ft | 504 kts | 265° |
| 2026-05-06 04:53 | 34.10509 | -116.28970 | 26715 ft | 497 kts | 265° |
| 2026-05-06 04:54 | 34.10084 | -116.33031 | 26358 ft | 488 kts | 265° |
| 2026-05-06 04:54 | 34.09652 | -116.37099 | 25775 ft | 483 kts | 265° |
| 2026-05-06 04:54 | 34.09221 | -116.41116 | 25242 ft | 478 kts | 265° |
| 2026-05-06 04:54 | 34.08795 | -116.45091 | 24692 ft | 473 kts | 265° |
| 2026-05-06 04:55 | 34.08374 | -116.48999 | 24173 ft | 467 kts | 265° |
| 2026-05-06 04:55 | 34.07966 | -116.52778 | 24022 ft | 452 kts | 265° |
| 2026-05-06 04:55 | 34.07567 | -116.56456 | 24019 ft | 435 kts | 265° |
| 2026-05-06 04:55 | 34.07193 | -116.60012 | 24031 ft | 420 kts | 266° |
| 2026-05-06 04:56 | 34.06874 | -116.63537 | 23536 ft | 424 kts | 266° |
| 2026-05-06 04:56 | 34.06558 | -116.66977 | 22909 ft | 425 kts | 266° |
| 2026-05-06 04:56 | 34.06230 | -116.70528 | 22257 ft | 425 kts | 266° |
| 2026-05-06 04:56 | 34.05907 | -116.73972 | 22073 ft | 412 kts | 266° |
| 2026-05-06 04:57 | 34.05582 | -116.77455 | 21335 ft | 418 kts | 266° |
| 2026-05-06 04:57 | 34.05263 | -116.80871 | 20996 ft | 409 kts | 266° |
| 2026-05-06 04:57 | 34.04946 | -116.84210 | 20904 ft | 395 kts | 266° |
| 2026-05-06 04:57 | 34.04637 | -116.87502 | 20446 ft | 393 kts | 265° |
| 2026-05-06 04:58 | 34.04275 | -116.90755 | 20084 ft | 388 kts | 263° |
| 2026-05-06 04:58 | 34.03856 | -116.93922 | 19675 ft | 384 kts | 263° |
| 2026-05-06 04:58 | 34.03447 | -116.97076 | 19132 ft | 383 kts | 263° |
| 2026-05-06 04:58 | 34.03033 | -117.00248 | 18728 ft | 378 kts | 264° |
| 2026-05-06 04:59 | 34.02627 | -117.03397 | 18236 ft | 376 kts | 264° |
| 2026-05-06 04:59 | 34.02264 | -117.06464 | 17815 ft | 372 kts | 264° |
| 2026-05-06 04:59 | 34.01902 | -117.09528 | 17350 ft | 370 kts | 264° |
| 2026-05-06 04:59 | 34.01539 | -117.12602 | 16888 ft | 367 kts | 264° |
| 2026-05-06 05:00 | 34.01176 | -117.15653 | 16405 ft | 366 kts | 264° |
| 2026-05-06 05:00 | 34.00817 | -117.18670 | 15843 ft | 367 kts | 264° |
| 2026-05-06 05:00 | 34.00456 | -117.21704 | 15200 ft | 370 kts | 264° |
| 2026-05-06 05:00 | 34.00087 | -117.24780 | 14652 ft | 370 kts | 264° |
| 2026-05-06 05:01 | 33.99740 | -117.27673 | 14319 ft | 364 kts | 264° |
| 2026-05-06 05:01 | 33.99381 | -117.30659 | 14064 ft | 355 kts | 264° |
| 2026-05-06 05:01 | 33.99036 | -117.33594 | 13748 ft | 355 kts | 264° |
| 2026-05-06 05:01 | 33.98691 | -117.36539 | 13328 ft | 353 kts | 264° |
| 2026-05-06 05:02 | 33.98351 | -117.39432 | 12938 ft | 349 kts | 264° |
| 2026-05-06 05:02 | 33.98014 | -117.42297 | 12625 ft | 340 kts | 264° |
| 2026-05-06 05:02 | 33.97682 | -117.45096 | 12420 ft | 335 kts | 264° |
| 2026-05-06 05:02 | 33.97392 | -117.47903 | 12069 ft | 334 kts | 271° |
| 2026-05-06 05:03 | 33.97619 | -117.50631 | 11800 ft | 329 kts | 284° |
| 2026-05-06 05:03 | 33.98084 | -117.53344 | 11286 ft | 332 kts | 284° |
| 2026-05-06 05:03 | 33.98551 | -117.56049 | 10705 ft | 336 kts | 286° |
| 2026-05-06 05:03 | 33.99057 | -117.58825 | 10113 ft | 340 kts | 281° |
| 2026-05-06 05:04 | 33.99334 | -117.61571 | 9987 ft | 328 kts | 278° |
| 2026-05-06 05:04 | 33.99521 | -117.64259 | 9976 ft | 314 kts | 276° |
| 2026-05-06 05:04 | 33.99604 | -117.66453 | 9971 ft | 301 kts | 273° |
| 2026-05-06 05:04 | 33.99630 | -117.68882 | 9959 ft | 291 kts | 272° |
| 2026-05-06 05:05 | 33.99617 | -117.71327 | 9786 ft | 289 kts | 271° |
| 2026-05-06 05:05 | 33.99601 | -117.73760 | 9569 ft | 288 kts | 272° |
| 2026-05-06 05:05 | 33.99639 | -117.76199 | 8990 ft | 297 kts | 274° |
| 2026-05-06 05:05 | 33.99706 | -117.78713 | 8365 ft | 306 kts | 273° |
| 2026-05-06 05:06 | 33.99758 | -117.81269 | 7917 ft | 306 kts | 272° |
| 2026-05-06 05:06 | 33.99724 | -117.83749 | 7868 ft | 285 kts | 267° |
| 2026-05-06 05:06 | 33.99559 | -117.86106 | 7578 ft | 280 kts | 266° |
| 2026-05-06 05:06 | 33.99371 | -117.88154 | 7251 ft | 276 kts | 262° |
| 2026-05-06 05:07 | 33.99231 | -117.89172 | 7119 ft | 274 kts | 261° |
| 2026-05-06 05:07 | 33.98823 | -117.91470 | 7179 ft | 267 kts | 258° |
| 2026-05-06 05:07 | 33.98387 | -117.93680 | 7074 ft | 275 kts | 258° |
| 2026-05-06 05:07 | 33.97971 | -117.95972 | 6701 ft | 282 kts | 259° |
| 2026-05-06 05:08 | 33.97580 | -117.98283 | 6186 ft | 279 kts | 260° |
| 2026-05-06 05:08 | 33.97244 | -118.00535 | 5828 ft | 272 kts | 262° |
| 2026-05-06 05:08 | 33.97003 | -118.02696 | 5500 ft | 264 kts | 264° |
| 2026-05-06 05:08 | 33.96896 | -118.03950 | 5373 ft | 258 kts | 265° |
| 2026-05-06 05:09 | 33.96706 | -118.06399 | 5331 ft | 245 kts | 265° |
| 2026-05-06 05:09 | 33.96529 | -118.08453 | 5054 ft | 246 kts | 264° |
| 2026-05-06 05:09 | 33.96374 | -118.10489 | 4666 ft | 249 kts | 266° |
| 2026-05-06 05:09 | 33.96240 | -118.12579 | 4311 ft | 249 kts | 266° |
| 2026-05-06 05:10 | 33.96077 | -118.14675 | 3959 ft | 248 kts | 264° |
| 2026-05-06 05:10 | 33.95885 | -118.16727 | 3524 ft | 248 kts | 265° |
| 2026-05-06 05:10 | 33.95705 | -118.18755 | 3213 ft | 241 kts | 264° |
| 2026-05-06 05:10 | 33.95529 | -118.20723 | 2956 ft | 233 kts | 265° |
| 2026-05-06 05:11 | 33.95336 | -118.22622 | 2769 ft | 222 kts | 263° |
| 2026-05-06 05:11 | 33.95124 | -118.24387 | 2664 ft | 207 kts | 262° |
| 2026-05-06 05:11 | 33.94922 | -118.26081 | 2423 ft | 200 kts | 262° |
| 2026-05-06 05:11 | 33.94750 | -118.27696 | 2082 ft | 189 kts | 263° |
| 2026-05-06 05:12 | 33.94627 | -118.29211 | 1788 ft | 178 kts | 264° |
| 2026-05-06 05:12 | 33.94498 | -118.30650 | 1597 ft | 164 kts | 263° |
| 2026-05-06 05:12 | 33.94382 | -118.31920 | 1422 ft | 144 kts | 263° |
| 2026-05-06 05:12 | 33.94277 | -118.33044 | 1137 ft | 142 kts | 263° |
| 2026-05-06 05:13 | 33.94147 | -118.34246 | 902 ft | 146 kts | 262° |
| 2026-05-06 05:13 | 33.94024 | -118.35484 | 676 ft | 151 kts | 263° |
| 2026-05-06 05:13 | 33.93897 | -118.36723 | 445 ft | 149 kts | 263° |
| 2026-05-06 05:13 | 33.93772 | -118.37964 | 200 ft | 145 kts | 263° |
| 2026-05-06 05:14 | 33.93656 | -118.39120 | 112 ft | 132 kts | 264° |
| 2026-05-06 05:14 | 33.93560 | -118.39971 | 121 ft | 65 kts | 263° |
| 2026-05-06 05:14 | 33.93525 | -118.40329 | 126 ft | 40 kts | 264° |
| 2026-05-06 05:14 | 33.93496 | -118.40604 | 129 ft | 20 kts | 261° |
| 2026-05-06 05:15 | 33.93470 | -118.40709 | 130 ft | 9 kts | 217° |
| 2026-05-06 05:15 | 33.93413 | -118.40722 | 130 ft | 5 kts | 175° |
| 2026-05-06 05:15 | 33.93382 | -118.40699 | 129 ft | 5 kts | 127° |
| 2026-05-06 05:15 | 33.93372 | -118.40636 | 129 ft | 11 kts | 86° |
| 2026-05-06 05:16 | 33.93384 | -118.40525 | 128 ft | 14 kts | 82° |
| 2026-05-06 05:16 | 33.93397 | -118.40404 | 127 ft | 14 kts | 84° |
| 2026-05-06 05:16 | 33.93410 | -118.40282 | 125 ft | 14 kts | 82° |
| 2026-05-06 05:16 | 33.93422 | -118.40157 | 123 ft | 15 kts | 84° |
| 2026-05-06 05:17 | 33.93435 | -118.40025 | 121 ft | 16 kts | 83° |
| 2026-05-06 05:17 | 33.93450 | -118.39886 | 119 ft | 17 kts | 83° |
| 2026-05-06 05:17 | 33.93464 | -118.39743 | 118 ft | 17 kts | 84° |
| 2026-05-06 05:17 | 33.93480 | -118.39596 | 115 ft | 18 kts | 83° |
| 2026-05-06 05:18 | 33.93496 | -118.39445 | 113 ft | 18 kts | 83° |
| 2026-05-06 05:18 | 33.93507 | -118.39317 | 113 ft | 11 kts | 85° |
| 2026-05-06 05:18 | 33.93510 | -118.39282 | 112 ft | 1 kts | 85° |
| 2026-05-06 05:18 | 33.93512 | -118.39254 | 112 ft | 5 kts | 85° |
| 2026-05-06 05:19 | 33.93516 | -118.39197 | 111 ft | 8 kts | 85° |
| 2026-05-06 05:19 | 33.93524 | -118.39118 | 111 ft | 10 kts | 80° |
| 2026-05-06 05:19 | 33.93539 | -118.39009 | 110 ft | 14 kts | 81° |
| 2026-05-06 05:19 | 33.93552 | -118.38888 | 109 ft | 13 kts | 83° |
| 2026-05-06 05:20 | 33.93548 | -118.38821 | 109 ft | 6 kts | 120° |
| 2026-05-06 05:20 | 33.93511 | -118.38795 | 109 ft | 6 kts | 166° |
| 2026-05-06 05:20 | 33.93468 | -118.38788 | 109 ft | 6 kts | 173° |
| 2026-05-06 05:20 | 33.93426 | -118.38782 | 109 ft | 6 kts | 173° |